sensor_id;sensor_type;location;lat;lon;timestamp;P1;durP1;ratioP1;P2;durP2;ratioP2
7162;SDS011;3623;47.098;15.446;2023-04-30T00:00:26;3.15;;;2.95;;
7162;SDS011;3623;47.098;15.446;2023-04-30T00:02:53;3.58;;;3.38;;
7162;SDS011;3623;47.098;15.446;2023-04-30T00:05:20;5.00;;;4.03;;
7162;SDS011;3623;47.098;15.446;2023-04-30T00:07:47;4.10;;;3.80;;
7162;SDS011;3623;47.098;15.446;2023-04-30T00:10:14;3.30;;;3.00;;
7162;SDS011;3623;47.098;15.446;2023-04-30T00:12:43;2.85;;;2.70;;
7162;SDS011;3623;47.098;15.446;2023-04-30T00:15:10;5.32;;;3.45;;
7162;SDS011;3623;47.098;15.446;2023-04-30T00:17:37;3.70;;;3.45;;
7162;SDS011;3623;47.098;15.446;2023-04-30T00:20:05;3.67;;;3.45;;
7162;SDS011;3623;47.098;15.446;2023-04-30T00:22:32;4.03;;;3.72;;
7162;SDS011;3623;47.098;15.446;2023-04-30T00:25:00;4.82;;;3.05;;
7162;SDS011;3623;47.098;15.446;2023-04-30T00:27:27;3.30;;;3.00;;
7162;SDS011;3623;47.098;15.446;2023-04-30T00:29:57;3.55;;;3.28;;
7162;SDS011;3623;47.098;15.446;2023-04-30T00:32:24;3.28;;;3.08;;
7162;SDS011;3623;47.098;15.446;2023-04-30T00:34:51;2.85;;;2.67;;
7162;SDS011;3623;47.098;15.446;2023-04-30T00:37:18;3.65;;;3.45;;
7162;SDS011;3623;47.098;15.446;2023-04-30T00:39:45;3.20;;;3.00;;
7162;SDS011;3623;47.098;15.446;2023-04-30T00:42:12;3.80;;;3.50;;
7162;SDS011;3623;47.098;15.446;2023-04-30T00:44:39;7.90;;;3.03;;
7162;SDS011;3623;47.098;15.446;2023-04-30T00:47:08;3.65;;;3.35;;
7162;SDS011;3623;47.098;15.446;2023-04-30T00:49:35;3.60;;;3.30;;
7162;SDS011;3623;47.098;15.446;2023-04-30T00:52:02;3.38;;;3.17;;
7162;SDS011;3623;47.098;15.446;2023-04-30T00:54:29;4.10;;;3.40;;
7162;SDS011;3623;47.098;15.446;2023-04-30T00:56:57;6.32;;;2.67;;
7162;SDS011;3623;47.098;15.446;2023-04-30T00:59:25;3.30;;;3.03;;
7162;SDS011;3623;47.098;15.446;2023-04-30T01:01:54;3.70;;;3.47;;
7162;SDS011;3623;47.098;15.446;2023-04-30T01:04:23;2.60;;;2.50;;
7162;SDS011;3623;47.098;15.446;2023-04-30T01:06:50;2.70;;;2.50;;
7162;SDS011;3623;47.098;15.446;2023-04-30T01:09:17;3.50;;;3.03;;
7162;SDS011;3623;47.098;15.446;2023-04-30T01:11:47;3.42;;;3.22;;
7162;SDS011;3623;47.098;15.446;2023-04-30T01:14:23;3.70;;;3.47;;
7162;SDS011;3623;47.098;15.446;2023-04-30T01:16:57;3.50;;;3.20;;
7162;SDS011;3623;47.098;15.446;2023-04-30T01:19:37;3.08;;;2.88;;
7162;SDS011;3623;47.098;15.446;2023-04-30T01:22:08;3.15;;;2.95;;
7162;SDS011;3623;47.098;15.446;2023-04-30T01:24:48;3.20;;;3.00;;
7162;SDS011;3623;47.098;15.446;2023-04-30T01:27:31;4.50;;;4.20;;
7162;SDS011;3623;47.098;15.446;2023-04-30T01:30:08;3.88;;;3.67;;
7162;SDS011;3623;47.098;15.446;2023-04-30T01:32:37;3.92;;;3.63;;
7162;SDS011;3623;47.098;15.446;2023-04-30T01:35:04;3.75;;;3.55;;
7162;SDS011;3623;47.098;15.446;2023-04-30T01:37:34;4.93;;;3.67;;
7162;SDS011;3623;47.098;15.446;2023-04-30T01:40:16;3.92;;;3.70;;
7162;SDS011;3623;47.098;15.446;2023-04-30T01:42:51;3.95;;;3.65;;
7162;SDS011;3623;47.098;15.446;2023-04-30T01:45:35;5.25;;;3.10;;
7162;SDS011;3623;47.098;15.446;2023-04-30T01:48:17;3.42;;;3.13;;
7162;SDS011;3623;47.098;15.446;2023-04-30T01:50:52;3.10;;;2.85;;
7162;SDS011;3623;47.098;15.446;2023-04-30T01:53:32;3.63;;;3.42;;
7162;SDS011;3623;47.098;15.446;2023-04-30T01:56:05;2.80;;;2.63;;
7162;SDS011;3623;47.098;15.446;2023-04-30T01:58:37;4.45;;;3.60;;
7162;SDS011;3623;47.098;15.446;2023-04-30T02:01:07;3.55;;;3.35;;
7162;SDS011;3623;47.098;15.446;2023-04-30T02:03:51;3.70;;;3.40;;
7162;SDS011;3623;47.098;15.446;2023-04-30T02:06:19;3.00;;;2.80;;
7162;SDS011;3623;47.098;15.446;2023-04-30T02:08:46;3.30;;;3.05;;
7162;SDS011;3623;47.098;15.446;2023-04-30T02:11:13;3.92;;;3.30;;
7162;SDS011;3623;47.098;15.446;2023-04-30T02:13:40;3.95;;;3.67;;
7162;SDS011;3623;47.098;15.446;2023-04-30T02:16:09;3.88;;;2.83;;
7162;SDS011;3623;47.098;15.446;2023-04-30T02:18:36;3.50;;;3.17;;
7162;SDS011;3623;47.098;15.446;2023-04-30T02:21:03;3.70;;;3.42;;
7162;SDS011;3623;47.098;15.446;2023-04-30T02:23:30;3.50;;;3.30;;
7162;SDS011;3623;47.098;15.446;2023-04-30T02:25:57;3.78;;;3.58;;
7162;SDS011;3623;47.098;15.446;2023-04-30T02:28:24;3.95;;;3.67;;
7162;SDS011;3623;47.098;15.446;2023-04-30T02:30:51;3.30;;;3.10;;
7162;SDS011;3623;47.098;15.446;2023-04-30T02:33:20;3.53;;;3.33;;
7162;SDS011;3623;47.098;15.446;2023-04-30T02:35:47;3.55;;;3.25;;
7162;SDS011;3623;47.098;15.446;2023-04-30T02:38:14;6.28;;;3.60;;
7162;SDS011;3623;47.098;15.446;2023-04-30T02:40:41;3.03;;;2.83;;
7162;SDS011;3623;47.098;15.446;2023-04-30T02:43:09;3.88;;;3.40;;
7162;SDS011;3623;47.098;15.446;2023-04-30T02:45:36;3.72;;;3.50;;
7162;SDS011;3623;47.098;15.446;2023-04-30T02:48:03;4.22;;;3.75;;
7162;SDS011;3623;47.098;15.446;2023-04-30T02:50:32;3.65;;;3.45;;
7162;SDS011;3623;47.098;15.446;2023-04-30T02:52:59;3.47;;;3.17;;
7162;SDS011;3623;47.098;15.446;2023-04-30T02:55:26;4.05;;;3.85;;
7162;SDS011;3623;47.098;15.446;2023-04-30T02:57:53;3.00;;;2.80;;
7162;SDS011;3623;47.098;15.446;2023-04-30T03:00:21;4.18;;;2.80;;
7162;SDS011;3623;47.098;15.446;2023-04-30T03:02:48;2.97;;;2.78;;
7162;SDS011;3623;47.098;15.446;2023-04-30T03:05:15;3.80;;;3.45;;
7162;SDS011;3623;47.098;15.446;2023-04-30T03:07:43;3.15;;;3.03;;
7162;SDS011;3623;47.098;15.446;2023-04-30T03:10:11;3.03;;;2.80;;
7162;SDS011;3623;47.098;15.446;2023-04-30T03:12:38;3.58;;;3.25;;
7162;SDS011;3623;47.098;15.446;2023-04-30T03:15:05;3.60;;;3.13;;
7162;SDS011;3623;47.098;15.446;2023-04-30T03:17:33;3.20;;;3.00;;
7162;SDS011;3623;47.098;15.446;2023-04-30T03:20:01;3.05;;;2.85;;
7162;SDS011;3623;47.098;15.446;2023-04-30T03:22:28;6.88;;;3.28;;
7162;SDS011;3623;47.098;15.446;2023-04-30T03:24:57;3.80;;;3.20;;
7162;SDS011;3623;47.098;15.446;2023-04-30T03:27:24;3.47;;;3.22;;
7162;SDS011;3623;47.098;15.446;2023-04-30T03:29:51;4.90;;;3.30;;
7162;SDS011;3623;47.098;15.446;2023-04-30T03:32:18;3.10;;;2.80;;
7162;SDS011;3623;47.098;15.446;2023-04-30T03:34:45;3.88;;;3.47;;
7162;SDS011;3623;47.098;15.446;2023-04-30T03:37:12;3.83;;;2.95;;
7162;SDS011;3623;47.098;15.446;2023-04-30T03:39:39;3.30;;;2.75;;
7162;SDS011;3623;47.098;15.446;2023-04-30T03:42:08;3.47;;;3.28;;
7162;SDS011;3623;47.098;15.446;2023-04-30T03:44:35;3.30;;;3.10;;
7162;SDS011;3623;47.098;15.446;2023-04-30T03:47:03;3.20;;;3.00;;
7162;SDS011;3623;47.098;15.446;2023-04-30T03:49:30;2.90;;;2.70;;
7162;SDS011;3623;47.098;15.446;2023-04-30T03:51:57;4.13;;;3.92;;
7162;SDS011;3623;47.098;15.446;2023-04-30T03:54:25;2.53;;;2.42;;
7162;SDS011;3623;47.098;15.446;2023-04-30T03:56:53;3.22;;;3.03;;
7162;SDS011;3623;47.098;15.446;2023-04-30T03:59:21;3.13;;;2.92;;
7162;SDS011;3623;47.098;15.446;2023-04-30T04:01:48;3.95;;;3.75;;
7162;SDS011;3623;47.098;15.446;2023-04-30T04:04:16;3.35;;;3.15;;
7162;SDS011;3623;47.098;15.446;2023-04-30T04:06:43;6.53;;;3.60;;
7162;SDS011;3623;47.098;15.446;2023-04-30T04:09:10;3.78;;;3.47;;
7162;SDS011;3623;47.098;15.446;2023-04-30T04:11:37;3.90;;;3.55;;
7162;SDS011;3623;47.098;15.446;2023-04-30T04:14:05;3.42;;;3.25;;
7162;SDS011;3623;47.098;15.446;2023-04-30T04:16:33;3.83;;;3.53;;
7162;SDS011;3623;47.098;15.446;2023-04-30T04:19:00;3.35;;;3.15;;
7162;SDS011;3623;47.098;15.446;2023-04-30T04:21:28;3.50;;;3.20;;
7162;SDS011;3623;47.098;15.446;2023-04-30T04:23:55;3.60;;;3.40;;
7162;SDS011;3623;47.098;15.446;2023-04-30T04:26:22;3.78;;;3.47;;
7162;SDS011;3623;47.098;15.446;2023-04-30T04:28:50;3.70;;;3.50;;
7162;SDS011;3623;47.098;15.446;2023-04-30T04:31:17;4.00;;;3.70;;
7162;SDS011;3623;47.098;15.446;2023-04-30T04:33:46;3.92;;;3.72;;
7162;SDS011;3623;47.098;15.446;2023-04-30T04:36:13;4.05;;;3.75;;
7162;SDS011;3623;47.098;15.446;2023-04-30T04:38:40;4.15;;;3.85;;
7162;SDS011;3623;47.098;15.446;2023-04-30T04:41:08;5.53;;;4.20;;
7162;SDS011;3623;47.098;15.446;2023-04-30T04:43:35;3.97;;;3.58;;
7162;SDS011;3623;47.098;15.446;2023-04-30T04:46:02;2.90;;;2.80;;
7162;SDS011;3623;47.098;15.446;2023-04-30T04:48:29;4.35;;;4.00;;
7162;SDS011;3623;47.098;15.446;2023-04-30T04:50:58;4.47;;;4.07;;
7162;SDS011;3623;47.098;15.446;2023-04-30T04:53:25;4.20;;;3.65;;
7162;SDS011;3623;47.098;15.446;2023-04-30T04:55:52;3.88;;;3.00;;
7162;SDS011;3623;47.098;15.446;2023-04-30T04:58:19;4.05;;;3.75;;
7162;SDS011;3623;47.098;15.446;2023-04-30T05:00:46;3.90;;;3.50;;
7162;SDS011;3623;47.098;15.446;2023-04-30T05:03:13;3.33;;;3.05;;
7162;SDS011;3623;47.098;15.446;2023-04-30T05:05:40;3.72;;;3.42;;
7162;SDS011;3623;47.098;15.446;2023-04-30T05:08:10;3.85;;;3.55;;
7162;SDS011;3623;47.098;15.446;2023-04-30T05:10:37;3.60;;;3.30;;
7162;SDS011;3623;47.098;15.446;2023-04-30T05:13:04;4.15;;;3.00;;
7162;SDS011;3623;47.098;15.446;2023-04-30T05:15:31;3.50;;;3.20;;
7162;SDS011;3623;47.098;15.446;2023-04-30T05:17:58;4.43;;;4.03;;
7162;SDS011;3623;47.098;15.446;2023-04-30T05:20:25;3.83;;;3.53;;
7162;SDS011;3623;47.098;15.446;2023-04-30T05:22:52;3.20;;;3.00;;
7162;SDS011;3623;47.098;15.446;2023-04-30T05:25:21;3.35;;;3.05;;
7162;SDS011;3623;47.098;15.446;2023-04-30T05:27:48;4.40;;;3.30;;
7162;SDS011;3623;47.098;15.446;2023-04-30T05:30:15;4.07;;;3.22;;
7162;SDS011;3623;47.098;15.446;2023-04-30T05:32:42;3.42;;;3.03;;
7162;SDS011;3623;47.098;15.446;2023-04-30T05:35:14;4.30;;;2.60;;
7162;SDS011;3623;47.098;15.446;2023-04-30T05:37:41;6.10;;;2.75;;
7162;SDS011;3623;47.098;15.446;2023-04-30T05:40:09;3.15;;;2.92;;
7162;SDS011;3623;47.098;15.446;2023-04-30T05:42:38;2.38;;;2.20;;
7162;SDS011;3623;47.098;15.446;2023-04-30T05:45:07;3.83;;;3.10;;
7162;SDS011;3623;47.098;15.446;2023-04-30T05:47:36;3.33;;;2.92;;
7162;SDS011;3623;47.098;15.446;2023-04-30T05:50:04;4.03;;;3.13;;
7162;SDS011;3623;47.098;15.446;2023-04-30T05:52:32;3.65;;;3.22;;
7162;SDS011;3623;47.098;15.446;2023-04-30T05:54:59;2.85;;;2.65;;
7162;SDS011;3623;47.098;15.446;2023-04-30T05:57:26;4.40;;;4.10;;
7162;SDS011;3623;47.098;15.446;2023-04-30T05:59:56;3.17;;;2.97;;
7162;SDS011;3623;47.098;15.446;2023-04-30T06:02:23;3.28;;;3.00;;
7162;SDS011;3623;47.098;15.446;2023-04-30T06:04:50;2.78;;;2.60;;
7162;SDS011;3623;47.098;15.446;2023-04-30T06:07:17;3.30;;;3.10;;
7162;SDS011;3623;47.098;15.446;2023-04-30T06:09:44;4.25;;;3.50;;
7162;SDS011;3623;47.098;15.446;2023-04-30T06:12:11;3.00;;;2.90;;
7162;SDS011;3623;47.098;15.446;2023-04-30T06:14:38;4.80;;;4.20;;
7162;SDS011;3623;47.098;15.446;2023-04-30T06:17:10;4.03;;;3.72;;
7162;SDS011;3623;47.098;15.446;2023-04-30T06:19:38;4.95;;;3.90;;
7162;SDS011;3623;47.098;15.446;2023-04-30T06:22:05;3.70;;;3.55;;
7162;SDS011;3623;47.098;15.446;2023-04-30T06:24:32;5.13;;;4.63;;
7162;SDS011;3623;47.098;15.446;2023-04-30T06:26:59;5.80;;;5.18;;
7162;SDS011;3623;47.098;15.446;2023-04-30T06:29:27;4.80;;;4.50;;
7162;SDS011;3623;47.098;15.446;2023-04-30T06:31:54;3.92;;;3.67;;
7162;SDS011;3623;47.098;15.446;2023-04-30T06:34:22;4.03;;;3.72;;
7162;SDS011;3623;47.098;15.446;2023-04-30T06:36:49;4.43;;;4.13;;
7162;SDS011;3623;47.098;15.446;2023-04-30T06:39:17;3.60;;;3.30;;
7162;SDS011;3623;47.098;15.446;2023-04-30T06:41:44;3.83;;;3.63;;
7162;SDS011;3623;47.098;15.446;2023-04-30T06:44:11;4.03;;;3.75;;
7162;SDS011;3623;47.098;15.446;2023-04-30T06:46:39;4.15;;;3.85;;
7162;SDS011;3623;47.098;15.446;2023-04-30T06:49:06;5.67;;;5.27;;
7162;SDS011;3623;47.098;15.446;2023-04-30T06:51:35;4.50;;;4.20;;
7162;SDS011;3623;47.098;15.446;2023-04-30T06:54:02;4.43;;;4.13;;
7162;SDS011;3623;47.098;15.446;2023-04-30T06:56:30;5.22;;;4.82;;
7162;SDS011;3623;47.098;15.446;2023-04-30T06:58:57;5.23;;;4.83;;
7162;SDS011;3623;47.098;15.446;2023-04-30T07:01:24;5.80;;;5.40;;
7162;SDS011;3623;47.098;15.446;2023-04-30T07:03:51;5.20;;;4.70;;
7162;SDS011;3623;47.098;15.446;2023-04-30T07:06:18;5.77;;;5.37;;
7162;SDS011;3623;47.098;15.446;2023-04-30T07:08:47;5.40;;;4.93;;
7162;SDS011;3623;47.098;15.446;2023-04-30T07:11:14;4.43;;;4.13;;
7162;SDS011;3623;47.098;15.446;2023-04-30T07:13:41;6.73;;;5.87;;
7162;SDS011;3623;47.098;15.446;2023-04-30T07:16:08;5.40;;;5.10;;
7162;SDS011;3623;47.098;15.446;2023-04-30T07:18:36;5.70;;;5.20;;
7162;SDS011;3623;47.098;15.446;2023-04-30T07:21:03;4.70;;;4.30;;
7162;SDS011;3623;47.098;15.446;2023-04-30T07:23:32;5.23;;;4.83;;
7162;SDS011;3623;47.098;15.446;2023-04-30T07:26:01;5.57;;;5.17;;
7162;SDS011;3623;47.098;15.446;2023-04-30T07:28:28;4.00;;;3.73;;
7162;SDS011;3623;47.098;15.446;2023-04-30T07:30:55;3.83;;;3.57;;
7162;SDS011;3623;47.098;15.446;2023-04-30T07:33:23;4.37;;;4.07;;
7162;SDS011;3623;47.098;15.446;2023-04-30T07:35:50;4.67;;;4.37;;
7162;SDS011;3623;47.098;15.446;2023-04-30T07:38:18;4.60;;;4.40;;
7162;SDS011;3623;47.098;15.446;2023-04-30T07:40:46;5.80;;;5.10;;
7162;SDS011;3623;47.098;15.446;2023-04-30T07:43:14;5.47;;;5.07;;
7162;SDS011;3623;47.098;15.446;2023-04-30T07:45:41;5.70;;;5.30;;
7162;SDS011;3623;47.098;15.446;2023-04-30T07:48:08;5.13;;;4.83;;
7162;SDS011;3623;47.098;15.446;2023-04-30T07:50:35;5.53;;;5.13;;
7162;SDS011;3623;47.098;15.446;2023-04-30T07:53:03;5.40;;;5.00;;
7162;SDS011;3623;47.098;15.446;2023-04-30T07:55:33;4.80;;;4.40;;
7162;SDS011;3623;47.098;15.446;2023-04-30T07:58:00;4.63;;;4.33;;
7162;SDS011;3623;47.098;15.446;2023-04-30T08:00:29;4.47;;;4.17;;
7162;SDS011;3623;47.098;15.446;2023-04-30T08:02:56;4.67;;;4.27;;
7162;SDS011;3623;47.098;15.446;2023-04-30T08:05:24;4.63;;;4.33;;
7162;SDS011;3623;47.098;15.446;2023-04-30T08:07:52;5.27;;;4.87;;
7162;SDS011;3623;47.098;15.446;2023-04-30T08:10:19;5.63;;;5.23;;
7162;SDS011;3623;47.098;15.446;2023-04-30T08:12:46;5.83;;;4.87;;
7162;SDS011;3623;47.098;15.446;2023-04-30T08:15:15;5.63;;;5.23;;
7162;SDS011;3623;47.098;15.446;2023-04-30T08:17:47;4.80;;;4.50;;
7162;SDS011;3623;47.098;15.446;2023-04-30T08:20:15;4.93;;;4.57;;
7162;SDS011;3623;47.098;15.446;2023-04-30T08:22:42;5.20;;;4.90;;
7162;SDS011;3623;47.098;15.446;2023-04-30T08:25:09;3.90;;;3.70;;
7162;SDS011;3623;47.098;15.446;2023-04-30T08:27:38;5.20;;;4.80;;
7162;SDS011;3623;47.098;15.446;2023-04-30T08:30:05;5.77;;;4.77;;
7162;SDS011;3623;47.098;15.446;2023-04-30T08:32:33;5.93;;;5.53;;
7162;SDS011;3623;47.098;15.446;2023-04-30T08:35:02;5.47;;;5.07;;
7162;SDS011;3623;47.098;15.446;2023-04-30T08:37:30;4.93;;;4.63;;
7162;SDS011;3623;47.098;15.446;2023-04-30T08:39:57;5.60;;;5.00;;
7162;SDS011;3623;47.098;15.446;2023-04-30T08:42:27;4.17;;;3.90;;
7162;SDS011;3623;47.098;15.446;2023-04-30T08:44:56;4.20;;;3.93;;
7162;SDS011;3623;47.098;15.446;2023-04-30T08:47:26;4.33;;;4.00;;
7162;SDS011;3623;47.098;15.446;2023-04-30T08:49:53;4.67;;;4.37;;
7162;SDS011;3623;47.098;15.446;2023-04-30T08:52:21;5.27;;;4.90;;
7162;SDS011;3623;47.098;15.446;2023-04-30T08:54:50;4.83;;;4.53;;
7162;SDS011;3623;47.098;15.446;2023-04-30T08:57:20;5.37;;;4.87;;
7162;SDS011;3623;47.098;15.446;2023-04-30T08:59:47;5.50;;;4.20;;
7162;SDS011;3623;47.098;15.446;2023-04-30T09:02:14;4.23;;;4.00;;
7162;SDS011;3623;47.098;15.446;2023-04-30T09:04:41;4.13;;;3.83;;
7162;SDS011;3623;47.098;15.446;2023-04-30T09:07:08;4.40;;;4.10;;
7162;SDS011;3623;47.098;15.446;2023-04-30T09:09:40;4.70;;;4.40;;
7162;SDS011;3623;47.098;15.446;2023-04-30T09:12:10;4.40;;;4.07;;
7162;SDS011;3623;47.098;15.446;2023-04-30T09:14:49;4.83;;;4.43;;
7162;SDS011;3623;47.098;15.446;2023-04-30T09:17:24;4.17;;;3.87;;
7162;SDS011;3623;47.098;15.446;2023-04-30T09:19:51;4.97;;;4.50;;
7162;SDS011;3623;47.098;15.446;2023-04-30T09:22:18;3.93;;;3.57;;
7162;SDS011;3623;47.098;15.446;2023-04-30T09:24:48;3.93;;;3.73;;
7162;SDS011;3623;47.098;15.446;2023-04-30T09:27:17;3.70;;;3.50;;
7162;SDS011;3623;47.098;15.446;2023-04-30T09:29:45;3.87;;;3.67;;
7162;SDS011;3623;47.098;15.446;2023-04-30T09:32:12;3.63;;;3.43;;
7162;SDS011;3623;47.098;15.446;2023-04-30T09:34:39;4.90;;;4.40;;
7162;SDS011;3623;47.098;15.446;2023-04-30T09:37:07;4.97;;;4.67;;
7162;SDS011;3623;47.098;15.446;2023-04-30T09:39:45;6.40;;;6.00;;
7162;SDS011;3623;47.098;15.446;2023-04-30T09:42:15;4.97;;;4.67;;
7162;SDS011;3623;47.098;15.446;2023-04-30T09:44:43;4.40;;;4.13;;
7162;SDS011;3623;47.098;15.446;2023-04-30T09:47:10;5.10;;;4.80;;
7162;SDS011;3623;47.098;15.446;2023-04-30T09:49:39;4.67;;;4.37;;
7162;SDS011;3623;47.098;15.446;2023-04-30T09:52:07;5.33;;;4.47;;
7162;SDS011;3623;47.098;15.446;2023-04-30T09:54:35;5.13;;;4.83;;
7162;SDS011;3623;47.098;15.446;2023-04-30T09:57:05;5.03;;;4.63;;
7162;SDS011;3623;47.098;15.446;2023-04-30T09:59:36;5.00;;;4.70;;
7162;SDS011;3623;47.098;15.446;2023-04-30T10:02:05;7.53;;;4.53;;
7162;SDS011;3623;47.098;15.446;2023-04-30T10:04:33;4.20;;;4.00;;
7162;SDS011;3623;47.098;15.446;2023-04-30T10:07:03;4.10;;;3.80;;
7162;SDS011;3623;47.098;15.446;2023-04-30T10:09:34;3.87;;;3.43;;
7162;SDS011;3623;47.098;15.446;2023-04-30T10:12:10;4.30;;;4.00;;
7162;SDS011;3623;47.098;15.446;2023-04-30T10:14:41;4.47;;;4.13;;
7162;SDS011;3623;47.098;15.446;2023-04-30T10:17:13;4.43;;;4.03;;
7162;SDS011;3623;47.098;15.446;2023-04-30T10:19:44;3.83;;;3.33;;
7162;SDS011;3623;47.098;15.446;2023-04-30T10:22:14;4.23;;;3.87;;
7162;SDS011;3623;47.098;15.446;2023-04-30T10:24:42;4.77;;;4.47;;
7162;SDS011;3623;47.098;15.446;2023-04-30T10:27:12;5.33;;;4.90;;
7162;SDS011;3623;47.098;15.446;2023-04-30T10:29:40;4.50;;;4.20;;
7162;SDS011;3623;47.098;15.446;2023-04-30T10:32:09;4.00;;;3.60;;
7162;SDS011;3623;47.098;15.446;2023-04-30T10:34:41;6.40;;;3.50;;
7162;SDS011;3623;47.098;15.446;2023-04-30T10:37:14;3.60;;;3.40;;
7162;SDS011;3623;47.098;15.446;2023-04-30T10:39:49;3.60;;;3.40;;
7162;SDS011;3623;47.098;15.446;2023-04-30T10:42:18;4.13;;;3.27;;
7162;SDS011;3623;47.098;15.446;2023-04-30T10:44:45;4.00;;;3.80;;
7162;SDS011;3623;47.098;15.446;2023-04-30T10:47:12;4.30;;;3.90;;
7162;SDS011;3623;47.098;15.446;2023-04-30T10:49:44;4.20;;;3.90;;
7162;SDS011;3623;47.098;15.446;2023-04-30T10:52:12;4.50;;;4.10;;
7162;SDS011;3623;47.098;15.446;2023-04-30T10:54:39;4.83;;;4.53;;
7162;SDS011;3623;47.098;15.446;2023-04-30T10:57:16;4.90;;;4.30;;
7162;SDS011;3623;47.098;15.446;2023-04-30T10:59:50;4.80;;;4.40;;
7162;SDS011;3623;47.098;15.446;2023-04-30T11:02:18;4.30;;;4.00;;
7162;SDS011;3623;47.098;15.446;2023-04-30T11:07:47;5.33;;;4.93;;
7162;SDS011;3623;47.098;15.446;2023-04-30T11:10:15;4.73;;;4.43;;
7162;SDS011;3623;47.098;15.446;2023-04-30T11:12:46;3.83;;;3.60;;
7162;SDS011;3623;47.098;15.446;2023-04-30T11:15:16;4.90;;;4.60;;
7162;SDS011;3623;47.098;15.446;2023-04-30T11:17:45;3.97;;;3.67;;
7162;SDS011;3623;47.098;15.446;2023-04-30T11:20:13;3.93;;;3.63;;
7162;SDS011;3623;47.098;15.446;2023-04-30T11:22:45;4.33;;;3.90;;
7162;SDS011;3623;47.098;15.446;2023-04-30T11:25:12;4.73;;;4.33;;
7162;SDS011;3623;47.098;15.446;2023-04-30T11:27:44;4.83;;;4.43;;
7162;SDS011;3623;47.098;15.446;2023-04-30T11:30:12;4.33;;;4.03;;
7162;SDS011;3623;47.098;15.446;2023-04-30T11:32:42;4.50;;;4.20;;
7162;SDS011;3623;47.098;15.446;2023-04-30T11:35:11;4.50;;;4.20;;
7162;SDS011;3623;47.098;15.446;2023-04-30T11:37:39;4.00;;;3.70;;
7162;SDS011;3623;47.098;15.446;2023-04-30T11:40:09;3.87;;;3.57;;
7162;SDS011;3623;47.098;15.446;2023-04-30T11:42:37;4.80;;;4.53;;
7162;SDS011;3623;47.098;15.446;2023-04-30T11:45:06;4.70;;;4.37;;
7162;SDS011;3623;47.098;15.446;2023-04-30T11:47:38;4.10;;;3.80;;
7162;SDS011;3623;47.098;15.446;2023-04-30T11:50:08;4.43;;;4.03;;
7162;SDS011;3623;47.098;15.446;2023-04-30T11:52:36;4.17;;;3.50;;
7162;SDS011;3623;47.098;15.446;2023-04-30T11:55:14;3.50;;;3.20;;
7162;SDS011;3623;47.098;15.446;2023-04-30T11:57:43;4.07;;;3.80;;
7162;SDS011;3623;47.098;15.446;2023-04-30T12:00:13;3.80;;;3.60;;
7162;SDS011;3623;47.098;15.446;2023-04-30T12:02:41;3.80;;;3.60;;
7162;SDS011;3623;47.098;15.446;2023-04-30T12:05:13;3.10;;;2.90;;
7162;SDS011;3623;47.098;15.446;2023-04-30T12:07:47;3.83;;;3.63;;
7162;SDS011;3623;47.098;15.446;2023-04-30T12:10:17;6.47;;;3.73;;
7162;SDS011;3623;47.098;15.446;2023-04-30T12:12:46;3.73;;;3.30;;
7162;SDS011;3623;47.098;15.446;2023-04-30T12:15:14;4.60;;;3.47;;
7162;SDS011;3623;47.098;15.446;2023-04-30T12:17:42;3.60;;;3.33;;
7162;SDS011;3623;47.098;15.446;2023-04-30T12:20:12;5.93;;;3.43;;
7162;SDS011;3623;47.098;15.446;2023-04-30T12:22:40;4.57;;;3.80;;
7162;SDS011;3623;47.098;15.446;2023-04-30T12:25:11;3.10;;;2.90;;
7162;SDS011;3623;47.098;15.446;2023-04-30T12:27:39;4.43;;;4.10;;
7162;SDS011;3623;47.098;15.446;2023-04-30T12:30:08;6.23;;;3.40;;
7162;SDS011;3623;47.098;15.446;2023-04-30T12:32:42;3.50;;;3.30;;
7162;SDS011;3623;47.098;15.446;2023-04-30T12:35:13;3.33;;;3.13;;
7162;SDS011;3623;47.098;15.446;2023-04-30T12:37:42;3.67;;;3.43;;
7162;SDS011;3623;47.098;15.446;2023-04-30T12:40:10;3.63;;;3.43;;
7162;SDS011;3623;47.098;15.446;2023-04-30T12:42:38;3.87;;;3.57;;
7162;SDS011;3623;47.098;15.446;2023-04-30T12:45:08;4.00;;;3.20;;
7162;SDS011;3623;47.098;15.446;2023-04-30T12:47:39;3.20;;;3.00;;
7162;SDS011;3623;47.098;15.446;2023-04-30T12:50:08;3.03;;;2.83;;
7162;SDS011;3623;47.098;15.446;2023-04-30T12:52:38;3.47;;;3.17;;
7162;SDS011;3623;47.098;15.446;2023-04-30T12:55:15;3.20;;;3.00;;
7162;SDS011;3623;47.098;15.446;2023-04-30T12:58:02;3.30;;;3.10;;
7162;SDS011;3623;47.098;15.446;2023-04-30T13:00:41;3.50;;;3.20;;
7162;SDS011;3623;47.098;15.446;2023-04-30T13:03:09;5.60;;;3.30;;
7162;SDS011;3623;47.098;15.446;2023-04-30T13:05:37;3.10;;;2.90;;
7162;SDS011;3623;47.098;15.446;2023-04-30T13:08:06;3.30;;;3.10;;
7162;SDS011;3623;47.098;15.446;2023-04-30T13:10:34;2.93;;;2.73;;
7162;SDS011;3623;47.098;15.446;2023-04-30T13:13:01;4.43;;;3.60;;
7162;SDS011;3623;47.098;15.446;2023-04-30T13:15:28;2.97;;;2.83;;
7162;SDS011;3623;47.098;15.446;2023-04-30T13:17:55;3.30;;;3.10;;
7162;SDS011;3623;47.098;15.446;2023-04-30T13:20:22;2.83;;;2.67;;
7162;SDS011;3623;47.098;15.446;2023-04-30T13:22:50;3.43;;;3.23;;
7162;SDS011;3623;47.098;15.446;2023-04-30T13:25:19;3.93;;;3.73;;
7162;SDS011;3623;47.098;15.446;2023-04-30T13:27:46;3.17;;;3.00;;
7162;SDS011;3623;47.098;15.446;2023-04-30T13:30:13;2.83;;;2.63;;
7162;SDS011;3623;47.098;15.446;2023-04-30T13:32:41;2.70;;;2.50;;
7162;SDS011;3623;47.098;15.446;2023-04-30T13:35:09;3.40;;;3.20;;
7162;SDS011;3623;47.098;15.446;2023-04-30T13:37:36;5.90;;;2.80;;
7162;SDS011;3623;47.098;15.446;2023-04-30T13:40:04;3.60;;;3.27;;
7162;SDS011;3623;47.098;15.446;2023-04-30T13:42:35;2.33;;;2.23;;
7162;SDS011;3623;47.098;15.446;2023-04-30T13:45:03;3.03;;;2.83;;
7162;SDS011;3623;47.098;15.446;2023-04-30T13:47:31;3.20;;;2.97;;
7162;SDS011;3623;47.098;15.446;2023-04-30T13:49:59;3.03;;;2.80;;
7162;SDS011;3623;47.098;15.446;2023-04-30T13:52:27;3.20;;;2.90;;
7162;SDS011;3623;47.098;15.446;2023-04-30T13:54:54;2.50;;;2.40;;
7162;SDS011;3623;47.098;15.446;2023-04-30T13:57:21;5.10;;;2.80;;
7162;SDS011;3623;47.098;15.446;2023-04-30T13:59:50;2.53;;;2.43;;
7162;SDS011;3623;47.098;15.446;2023-04-30T14:02:17;2.70;;;2.50;;
7162;SDS011;3623;47.098;15.446;2023-04-30T14:04:44;2.40;;;2.30;;
7162;SDS011;3623;47.098;15.446;2023-04-30T14:07:11;3.17;;;2.70;;
7162;SDS011;3623;47.098;15.446;2023-04-30T14:09:39;2.50;;;2.40;;
7162;SDS011;3623;47.098;15.446;2023-04-30T14:12:06;2.33;;;2.23;;
7162;SDS011;3623;47.098;15.446;2023-04-30T14:14:33;2.10;;;2.00;;
7162;SDS011;3623;47.098;15.446;2023-04-30T14:17:01;2.73;;;2.63;;
7162;SDS011;3623;47.098;15.446;2023-04-30T14:19:29;2.50;;;2.40;;
7162;SDS011;3623;47.098;15.446;2023-04-30T14:21:56;2.50;;;2.30;;
7162;SDS011;3623;47.098;15.446;2023-04-30T14:24:23;2.97;;;2.77;;
7162;SDS011;3623;47.098;15.446;2023-04-30T14:26:52;2.57;;;2.43;;
7162;SDS011;3623;47.098;15.446;2023-04-30T14:29:19;3.30;;;3.07;;
7162;SDS011;3623;47.098;15.446;2023-04-30T14:31:46;4.33;;;4.03;;
7162;SDS011;3623;47.098;15.446;2023-04-30T14:34:14;3.50;;;3.27;;
7162;SDS011;3623;47.098;15.446;2023-04-30T14:36:42;2.23;;;2.13;;
7162;SDS011;3623;47.098;15.446;2023-04-30T14:39:09;2.37;;;2.17;;
7162;SDS011;3623;47.098;15.446;2023-04-30T14:41:36;3.50;;;2.83;;
7162;SDS011;3623;47.098;15.446;2023-04-30T14:44:03;2.20;;;2.10;;
7162;SDS011;3623;47.098;15.446;2023-04-30T14:46:30;2.47;;;2.30;;
7162;SDS011;3623;47.098;15.446;2023-04-30T14:48:58;3.37;;;3.00;;
7162;SDS011;3623;47.098;15.446;2023-04-30T14:51:27;2.60;;;2.17;;
7162;SDS011;3623;47.098;15.446;2023-04-30T14:53:56;2.50;;;2.30;;
7162;SDS011;3623;47.098;15.446;2023-04-30T14:56:23;2.03;;;1.83;;
7162;SDS011;3623;47.098;15.446;2023-04-30T14:58:50;1.77;;;1.67;;
7162;SDS011;3623;47.098;15.446;2023-04-30T15:01:17;2.10;;;2.00;;
7162;SDS011;3623;47.098;15.446;2023-04-30T15:03:44;2.07;;;1.97;;
7162;SDS011;3623;47.098;15.446;2023-04-30T15:06:12;2.33;;;2.17;;
7162;SDS011;3623;47.098;15.446;2023-04-30T15:08:40;2.33;;;2.13;;
7162;SDS011;3623;47.098;15.446;2023-04-30T15:11:08;2.03;;;1.93;;